Time;durP1;ratioP1;P1;durP2;ratioP2;P2;SDS_P1;SDS_P2;PMS_P1;PMS_P2;Temp;Humidity;BMP_temperature;BMP_pressure;BME280_temperature;BME280_humidity;BME280_pressure;Samples;Min_cycle;Max_cycle;Signal;HPM_P1;HPM_P2
2023/01/08 00:01:13;;;;;;;55.05;27.05;;;;;;;2.94;nan;95583.03;5051691;28;20229;-67
2023/01/08 00:03:40;;;;;;;52.33;25.60;;;;;;;2.98;nan;95578.81;5052248;28;21274;-66
2023/01/08 00:06:10;;;;;;;47.13;24.75;;;;;;;2.99;nan;95575.47;5051639;28;20205;-65
2023/01/08 00:08:37;;;;;;;54.33;25.80;;;;;;;3.04;nan;95579.69;5051562;28;20233;-64
2023/01/08 00:11:04;;;;;;;51.40;25.77;;;;;;;2.96;nan;95578.00;5051452;28;21016;-66
2023/01/08 00:13:31;;;;;;;46.38;26.17;;;;;;;2.95;nan;95578.84;5051250;28;20293;-67
2023/01/08 00:16:02;;;;;;;44.65;26.25;;;;;;;3.05;nan;95576.34;5051111;28;20774;-66
2023/01/08 00:18:30;;;;;;;48.92;26.27;;;;;;;3.15;nan;95582.25;5050919;28;20904;-66
2023/01/08 00:20:58;;;;;;;52.63;26.97;;;;;;;3.00;nan;95583.03;5051175;28;20719;-67
2023/01/08 00:23:24;;;;;;;53.53;27.37;;;;;;;2.95;nan;95583.84;5051701;28;20705;-65
2023/01/08 00:25:51;;;;;;;48.93;27.03;;;;;;;2.99;nan;95578.00;5051384;28;20197;-66
2023/01/08 00:28:19;;;;;;;48.08;26.45;;;;;;;2.85;nan;95572.09;5050464;28;20282;-65
2023/01/08 00:30:46;;;;;;;46.90;26.37;;;;;;;2.65;nan;95560.28;5050429;28;20201;-65
2023/01/08 00:33:13;;;;;;;60.33;29.40;;;;;;;2.82;nan;95574.59;5051283;28;20205;-66
2023/01/08 00:35:41;;;;;;;48.77;27.20;;;;;;;2.83;nan;95573.75;5051894;28;20201;-67
2023/01/08 00:38:08;;;;;;;46.83;26.50;;;;;;;2.93;nan;95580.50;5049875;28;21722;-66
2023/01/08 00:40:36;;;;;;;52.60;27.37;;;;;;;2.95;nan;95578.84;5051231;28;20213;-66
2023/01/08 00:43:03;;;;;;;50.07;27.63;;;;;;;2.81;nan;95585.44;5051908;28;20229;-66
2023/01/08 00:45:29;;;;;;;60.70;27.73;;;;;;;2.77;nan;95583.75;5051475;28;20829;-66
2023/01/08 00:47:56;;;;;;;58.50;27.83;;;;;;;2.70;nan;95583.75;5050156;28;20233;-66
2023/01/08 00:50:23;;;;;;;58.20;27.17;;;;;;;2.74;nan;95580.41;5050630;28;20209;-66
2023/01/08 00:52:51;;;;;;;55.80;26.50;;;;;;;2.71;nan;95584.59;5052164;28;20210;-68
2023/01/08 00:55:18;;;;;;;51.00;27.93;;;;;;;2.80;nan;95579.59;5051354;28;20815;-65
2023/01/08 00:57:45;;;;;;;50.90;25.87;;;;;;;2.86;nan;95584.66;5049962;28;20674;-63
2023/01/08 01:00:14;;;;;;;47.33;25.37;;;;;;;2.79;nan;95587.13;5050772;28;20205;-66
2023/01/08 01:02:42;;;;;;;48.92;26.60;;;;;;;2.81;nan;95583.78;5050386;28;20875;-66
2023/01/08 01:05:09;;;;;;;43.47;24.40;;;;;;;2.84;nan;95582.97;5051177;28;20645;-64
2023/01/08 01:07:36;;;;;;;49.03;26.30;;;;;;;2.76;nan;95587.94;5049174;28;20205;-65
2023/01/08 01:10:05;;;;;;;46.03;25.27;;;;;;;2.74;nan;95594.63;5052780;28;20266;-66
2023/01/08 01:12:32;;;;;;;47.80;27.23;;;;;;;2.69;nan;95579.56;5054354;28;20217;-66
2023/01/08 01:14:59;;;;;;;52.43;27.67;;;;;;;2.67;nan;95585.41;5054583;28;20202;-65
2023/01/08 01:17:25;;;;;;;47.23;26.10;;;;;;;2.74;nan;95590.44;5053759;28;20204;-65
2023/01/08 01:19:52;;;;;;;51.27;26.33;;;;;;;2.77;nan;95583.75;5052698;28;21366;-65
2023/01/08 01:22:19;;;;;;;49.67;25.27;;;;;;;2.63;nan;95581.19;5053642;28;20205;-67
2023/01/08 01:24:46;;;;;;;46.37;25.60;;;;;;;2.60;nan;95587.03;5055143;28;20213;-65
2023/01/08 01:27:14;;;;;;;49.53;27.52;;;;;;;2.59;nan;95580.34;5053050;28;20232;-65
2023/01/08 01:29:40;;;;;;;53.13;26.73;;;;;;;2.63;nan;95578.69;5050490;28;20713;-65
2023/01/08 01:32:08;;;;;;;47.20;25.73;;;;;;;2.58;nan;95575.31;5053887;28;20739;-65
2023/01/08 01:34:35;;;;;;;45.40;26.53;;;;;;;2.62;nan;95574.50;5051643;28;20205;-66
2023/01/08 01:37:03;;;;;;;47.20;26.13;;;;;;;2.63;nan;95582.03;5050859;28;20282;-65
2023/01/08 01:39:30;;;;;;;47.05;26.17;;;;;;;2.60;nan;95579.50;5050492;28;20643;-67
2023/01/08 01:41:57;;;;;;;55.40;27.10;;;;;;;2.57;nan;95579.47;5050273;28;20673;-66
2023/01/08 01:44:41;;;;;;;51.33;26.83;;;;;;;2.51;nan;95576.09;5051519;28;20290;-67
2023/01/08 01:47:20;;;;;;;50.67;26.10;;;;;;;2.65;nan;95575.34;5052010;28;20675;-66
2023/01/08 01:49:53;;;;;;;52.33;27.23;;;;;;;2.64;nan;95568.66;5050020;28;20274;-63
2023/01/08 01:52:21;;;;;;;52.00;25.23;;;;;;;2.32;nan;95565.13;5047597;28;20270;-66
2023/01/08 01:54:49;;;;;;;47.63;26.00;;;;;;;2.38;nan;95565.16;5053185;28;20209;-66
2023/01/08 01:57:15;;;;;;;47.60;25.77;;;;;;;2.32;nan;95560.94;5051629;28;20636;-67
2023/01/08 01:59:45;;;;;;;54.97;26.00;;;;;;;2.25;nan;95564.25;5050848;28;20279;-65
2023/01/08 02:02:12;;;;;;;56.13;25.67;;;;;;;2.16;nan;95551.66;5052052;28;20267;-67
2023/01/08 02:04:39;;;;;;;42.73;23.07;;;;;;;2.27;nan;95559.22;5053209;28;20246;-67
2023/01/08 02:07:13;;;;;;;44.97;24.30;;;;;;;2.32;nan;95568.47;5053274;28;20202;-67
2023/01/08 02:09:48;;;;;;;48.20;23.93;;;;;;;2.42;nan;95554.31;5051555;28;20226;-67
2023/01/08 02:12:19;;;;;;;43.67;22.37;;;;;;;2.38;nan;95565.16;5052856;28;20302;-67
2023/01/08 02:15:03;;;;;;;40.63;22.87;;;;;;;2.44;nan;95555.19;5052668;28;20267;-66
2023/01/08 02:17:39;;;;;;;37.60;23.23;;;;;;;2.41;nan;95555.16;5052122;28;20797;-64
2023/01/08 02:20:11;;;;;;;42.73;23.20;;;;;;;2.36;nan;95556.78;5050949;28;20232;-68
2023/01/08 02:22:51;;;;;;;46.03;23.08;;;;;;;2.38;nan;95550.97;5052397;28;20210;-66
2023/01/08 02:25:27;;;;;;;44.15;23.05;;;;;;;2.29;nan;95547.53;5052556;28;20255;-67
2023/01/08 02:27:59;;;;;;;45.03;24.53;;;;;;;2.24;nan;95551.69;5052029;28;20298;-68
2023/01/08 02:30:26;;;;;;;42.15;22.85;;;;;;;2.21;nan;95544.16;5052160;28;20198;-66
2023/01/08 02:32:52;;;;;;;37.00;21.70;;;;;;;2.29;nan;95545.88;5054400;28;20206;-66
2023/01/08 02:35:19;;;;;;;39.57;22.50;;;;;;;2.29;nan;95545.03;5053668;28;20291;-67
2023/01/08 02:37:46;;;;;;;41.43;22.30;;;;;;;2.31;nan;95543.38;5052537;28;21040;-67
2023/01/08 02:40:24;;;;;;;39.47;21.37;;;;;;;2.18;nan;95541.66;5052422;28;20202;-67
2023/01/08 02:42:59;;;;;;;35.63;21.53;;;;;;;2.22;nan;95533.31;5053949;28;20306;-67
2023/01/08 02:45:35;;;;;;;40.20;21.38;;;;;;;2.22;nan;95536.66;5053528;28;20209;-67
2023/01/08 02:48:09;;;;;;;37.93;22.73;;;;;;;2.27;nan;95536.66;5052427;28;21757;-67
2023/01/08 02:50:40;;;;;;;43.03;23.07;;;;;;;2.30;nan;95524.97;5053193;28;20243;-67
2023/01/08 02:53:12;;;;;;;42.47;23.87;;;;;;;2.09;nan;95531.53;5053484;28;20675;-66
2023/01/08 02:55:42;;;;;;;63.05;24.88;;;;;;;1.99;nan;95530.63;5052691;28;20501;-65
2023/01/08 02:58:11;;;;;;;38.27;23.00;;;;;;;1.90;nan;95525.56;5051460;28;20208;-66
2023/01/08 03:00:41;;;;;;;55.93;28.50;;;;;;;2.03;nan;95524.81;5052136;28;20206;-67
2023/01/08 03:03:12;;;;;;;44.03;25.33;;;;;;;2.21;nan;95534.13;5051543;28;20472;-66
2023/01/08 03:05:42;;;;;;;43.20;23.37;;;;;;;2.12;nan;95531.56;5052262;28;20570;-66
2023/01/08 03:08:09;;;;;;;42.63;22.75;;;;;;;1.89;nan;95534.75;5051479;28;20210;-67
2023/01/08 03:10:38;;;;;;;38.10;22.85;;;;;;;1.90;nan;95531.44;5052806;28;20662;-67
2023/01/08 03:13:11;;;;;;;34.00;21.37;;;;;;;1.88;nan;95543.09;5052734;28;20253;-67
2023/01/08 03:15:46;;;;;;;41.23;21.53;;;;;;;1.99;nan;95533.97;5052818;28;20205;-66
2023/01/08 03:18:18;;;;;;;43.10;22.53;;;;;;;1.94;nan;95542.31;5051732;28;20209;-67
2023/01/08 03:20:47;;;;;;;38.13;21.67;;;;;;;2.06;nan;95537.38;5051224;28;20208;-67
2023/01/08 03:23:16;;;;;;;38.45;21.65;;;;;;;1.98;nan;95539.81;5051319;28;20682;-67
2023/01/08 03:25:46;;;;;;;37.40;23.13;;;;;;;2.09;nan;95536.56;5052092;28;20209;-67
2023/01/08 03:28:18;;;;;;;37.07;21.83;;;;;;;2.09;nan;95537.41;5051401;28;20213;-67
2023/01/08 03:30:48;;;;;;;38.97;21.97;;;;;;;1.98;nan;95539.00;5051164;28;20213;-66
2023/01/08 03:33:18;;;;;;;41.07;21.73;;;;;;;2.07;nan;95540.72;5052034;28;20329;-66
2023/01/08 03:35:50;;;;;;;40.33;22.63;;;;;;;1.98;nan;95539.81;5052643;28;20753;-66
2023/01/08 03:38:22;;;;;;;40.90;20.98;;;;;;;2.02;nan;95541.53;5051869;28;20209;-66
2023/01/08 03:40:54;;;;;;;35.37;21.33;;;;;;;2.00;nan;95542.34;5052409;28;20201;-67
2023/01/08 03:43:20;;;;;;;39.28;21.85;;;;;;;1.74;nan;95547.16;5052517;28;21484;-65
2023/01/08 03:45:51;;;;;;;35.47;21.63;;;;;;;1.45;nan;95541.09;5053056;28;20214;-66
2023/01/08 03:48:20;;;;;;;36.50;21.67;;;;;;;1.54;nan;95533.63;5052177;28;20249;-65
2023/01/08 03:50:48;;;;;;;34.30;21.67;;;;;;;1.40;nan;95533.53;5052645;28;20659;-64
2023/01/08 03:53:15;;;;;;;46.57;23.27;;;;;;;1.52;nan;95536.13;5052449;28;20283;-67
2023/01/08 03:55:41;;;;;;;46.63;23.88;;;;;;;1.62;nan;95535.38;5052580;28;20278;-67
2023/01/08 03:58:08;;;;;;;29.23;20.90;;;;;;;1.74;nan;95529.63;5052780;28;20260;-67
2023/01/08 04:00:35;;;;;;;39.00;20.93;;;;;;;1.77;nan;95534.66;5052099;28;21469;-66
2023/01/08 04:03:03;;;;;;;35.30;20.80;;;;;;;1.82;nan;95537.19;5052411;28;20237;-66
2023/01/08 04:05:30;;;;;;;34.33;20.17;;;;;;;1.71;nan;95529.63;5052397;28;20635;-67
2023/01/08 04:07:57;;;;;;;35.43;20.47;;;;;;;1.80;nan;95539.69;5051284;28;20638;-67
2023/01/08 04:10:25;;;;;;;35.97;20.13;;;;;;;1.83;nan;95534.72;5048601;28;20245;-66
2023/01/08 04:12:52;;;;;;;30.37;20.17;;;;;;;1.86;nan;95549.78;5054189;28;20301;-66
2023/01/08 04:15:20;;;;;;;33.77;21.13;;;;;;;1.84;nan;95541.41;5052734;28;20205;-67
2023/01/08 04:17:47;;;;;;;34.50;20.50;;;;;;;1.65;nan;95542.09;5053651;28;20205;-66
2023/01/08 04:20:15;;;;;;;34.63;19.97;;;;;;;1.45;nan;95533.56;5050919;28;20201;-66
2023/01/08 04:22:42;;;;;;;35.13;20.27;;;;;;;1.32;nan;95538.44;5051176;28;20643;-66
2023/01/08 04:25:09;;;;;;;39.27;20.23;;;;;;;1.32;nan;95535.94;5050456;28;20216;-66
2023/01/08 04:27:36;;;;;;;30.20;19.07;;;;;;;1.25;nan;95539.22;5051812;28;20302;-65
2023/01/08 04:30:03;;;;;;;29.37;19.87;;;;;;;1.25;nan;95539.22;5050374;28;20214;-66
2023/01/08 04:32:30;;;;;;;33.37;19.20;;;;;;;1.32;nan;95522.59;5051526;28;20197;-67
2023/01/08 04:34:56;;;;;;;33.10;18.50;;;;;;;1.45;nan;95536.91;5051988;28;20190;-66
2023/01/08 04:37:25;;;;;;;27.33;18.20;;;;;;;1.41;nan;95535.19;5053192;28;21582;-66
2023/01/08 04:39:51;;;;;;;35.63;19.40;;;;;;;1.46;nan;95538.59;5052796;28;20712;-66
2023/01/08 04:42:18;;;;;;;36.23;19.07;;;;;;;1.51;nan;95541.94;5050636;28;20250;-66
2023/01/08 04:44:45;;;;;;;34.03;19.83;;;;;;;1.46;nan;95542.75;5052304;28;20213;-67
2023/01/08 04:47:12;;;;;;;35.93;20.00;;;;;;;1.54;nan;95541.16;5053307;28;20212;-66
2023/01/08 04:49:38;;;;;;;32.20;18.83;;;;;;;1.56;nan;95539.50;5052119;28;20274;-67
2023/01/08 04:52:05;;;;;;;36.53;19.80;;;;;;;1.38;nan;95551.84;5052385;28;22662;-66
2023/01/08 04:54:33;;;;;;;40.23;22.03;;;;;;;1.33;nan;95547.66;5052242;28;20585;-67
2023/01/08 04:57:00;;;;;;;37.13;20.00;;;;;;;1.44;nan;95539.41;5052520;28;20202;-64
2023/01/08 04:59:27;;;;;;;49.00;22.97;;;;;;;1.52;nan;95545.28;5052567;28;20197;-66
2023/01/08 05:01:55;;;;;;;48.97;25.77;;;;;;;1.60;nan;95551.22;5051168;28;20201;-66
2023/01/08 05:04:22;;;;;;;42.63;20.97;;;;;;;1.52;nan;95556.16;5051677;28;20209;-66
2023/01/08 05:06:48;;;;;;;45.17;23.63;;;;;;;1.51;nan;95551.13;5051881;28;20512;-67
2023/01/08 05:09:15;;;;;;;40.17;20.57;;;;;;;1.31;nan;95534.25;5051651;28;20282;-66
2023/01/08 05:11:43;;;;;;;36.20;22.30;;;;;;;1.41;nan;95559.41;5050373;28;20229;-67
2023/01/08 05:14:10;;;;;;;41.93;20.80;;;;;;;1.41;nan;95554.41;5051744;28;20213;-66
2023/01/08 05:16:37;;;;;;;37.77;20.87;;;;;;;1.46;nan;95557.78;5051408;28;20205;-67
2023/01/08 05:19:04;;;;;;;42.10;21.30;;;;;;;1.38;nan;95552.69;5051047;28;21157;-67
2023/01/08 05:21:30;;;;;;;40.47;20.97;;;;;;;1.41;nan;95556.91;5050645;28;21018;-68
2023/01/08 05:23:57;;;;;;;41.60;21.97;;;;;;;1.39;nan;95554.38;5051098;28;20665;-66
2023/01/08 05:26:24;;;;;;;41.23;22.93;;;;;;;1.32;nan;95555.97;5050918;28;20667;-67
2023/01/08 05:28:52;;;;;;;42.13;22.63;;;;;;;1.23;nan;95550.91;5052321;28;20237;-67
2023/01/08 05:31:19;;;;;;;46.43;23.67;;;;;;;1.06;nan;95546.53;5050050;28;20708;-67
2023/01/08 05:33:46;;;;;;;35.47;20.37;;;;;;;1.11;nan;95545.75;5051971;28;20202;-66
2023/01/08 05:36:13;;;;;;;42.87;20.67;;;;;;;1.00;nan;95547.28;5050896;28;20690;-65
2023/01/08 05:38:40;;;;;;;44.30;21.77;;;;;;;0.91;nan;95554.72;5052100;28;20267;-66
2023/01/08 05:41:07;;;;;;;39.80;20.87;;;;;;;1.02;nan;95560.66;5048952;28;20202;-67
2023/01/08 05:43:34;;;;;;;39.57;21.03;;;;;;;1.03;nan;95552.34;5051192;28;20236;-67
2023/01/08 05:46:03;;;;;;;33.93;19.80;;;;;;;1.00;nan;95552.28;5049129;28;20201;-67
2023/01/08 05:48:32;;;;;;;33.70;20.73;;;;;;;1.05;nan;95549.84;5050653;28;20880;-68
2023/01/08 05:50:59;;;;;;;30.67;19.73;;;;;;;0.96;nan;95560.63;5051116;28;20364;-70
2023/01/08 05:53:26;;;;;;;39.40;20.60;;;;;;;0.96;nan;95550.59;5051410;28;20206;-66
2023/01/08 05:55:57;;;;;;;36.97;19.27;;;;;;;1.05;nan;95555.69;5054841;28;20616;-69
2023/01/08 05:58:26;;;;;;;40.33;22.47;;;;;;;0.96;nan;95558.13;5052483;28;20197;-67
2023/01/08 06:00:52;;;;;;;35.70;20.63;;;;;;;0.99;nan;95541.44;5054505;28;20205;-67
2023/01/08 06:03:21;;;;;;;42.92;21.92;;;;;;;1.08;nan;95560.72;5054914;28;20753;-67
2023/01/08 06:05:48;;;;;;;36.77;21.43;;;;;;;1.13;nan;95560.78;5054397;28;20349;-67
2023/01/08 06:08:15;;;;;;;37.63;22.67;;;;;;;1.07;nan;95560.72;5054474;28;20209;-67
2023/01/08 06:10:42;;;;;;;38.63;22.73;;;;;;;1.29;nan;95565.13;5055380;28;20234;-67
2023/01/08 06:13:08;;;;;;;44.23;23.27;;;;;;;1.54;nan;95566.19;5056229;28;20229;-67
2023/01/08 06:15:37;;;;;;;38.90;22.23;;;;;;;1.80;nan;95562.25;5055357;28;20585;-67
2023/01/08 06:18:04;;;;;;;39.67;21.93;;;;;;;2.18;nan;95559.19;5052656;28;20291;-67
2023/01/08 06:20:32;;;;;;;49.63;22.80;;;;;;;2.41;nan;95567.69;5053688;28;20202;-66
2023/01/08 06:22:59;;;;;;;43.10;21.87;;;;;;;2.34;nan;95564.31;5054191;28;20282;-67
2023/01/08 06:25:25;;;;;;;39.40;20.03;;;;;;;2.27;nan;95566.75;5054493;28;20228;-65
2023/01/08 06:27:52;;;;;;;35.83;20.10;;;;;;;2.17;nan;95568.38;5053556;28;20350;-65
2023/01/08 06:30:19;;;;;;;40.93;20.53;;;;;;;2.23;nan;95570.91;5052438;28;20867;-68
2023/01/08 06:32:46;;;;;;;34.83;18.83;;;;;;;2.35;nan;95575.19;5053618;28;20208;-68
2023/01/08 06:35:13;;;;;;;34.10;19.80;;;;;;;2.47;nan;95579.44;5053736;28;20603;-66
2023/01/08 06:37:41;;;;;;;37.83;20.07;;;;;;;2.54;nan;95581.13;5053911;28;20258;-66
2023/01/08 06:40:09;;;;;;;40.85;21.10;;;;;;;2.51;nan;95583.63;5052264;28;20209;-68
2023/01/08 06:42:36;;;;;;;40.63;22.27;;;;;;;2.59;nan;95585.34;5054442;28;20205;-67
2023/01/08 06:45:02;;;;;;;46.05;22.88;;;;;;;2.62;nan;95587.88;5054139;28;20206;-67
2023/01/08 06:47:29;;;;;;;39.47;22.23;;;;;;;2.49;nan;95588.63;5053568;28;20206;-66
2023/01/08 06:49:58;;;;;;;49.90;24.23;;;;;;;2.50;nan;95586.97;5051963;28;20234;-65
2023/01/08 06:52:24;;;;;;;46.97;24.13;;;;;;;2.62;nan;95595.41;5053658;28;20243;-67
2023/01/08 06:54:53;;;;;;;53.83;24.90;;;;;;;2.59;nan;95582.00;5054303;28;22156;-66
2023/01/08 06:57:20;;;;;;;43.87;25.17;;;;;;;2.71;nan;95590.44;5053497;28;20213;-67
2023/01/08 06:59:46;;;;;;;55.53;26.63;;;;;;;2.82;nan;95587.97;5051565;28;20227;-66
2023/01/08 07:02:14;;;;;;;58.30;29.10;;;;;;;2.94;nan;95582.19;5052913;28;20214;-67
2023/01/08 07:04:41;;;;;;;65.30;30.50;;;;;;;3.04;nan;95587.22;5053635;28;22416;-66
2023/01/08 07:07:08;;;;;;;46.80;25.00;;;;;;;3.19;nan;95588.97;5052706;28;20212;-68
2023/01/08 07:09:35;;;;;;;39.25;20.98;;;;;;;3.28;nan;95593.16;5051726;28;22618;-67
2023/01/08 07:12:04;;;;;;;32.83;18.90;;;;;;;3.53;nan;95594.06;5052641;28;22244;-67
2023/01/08 07:14:31;;;;;;;35.43;18.47;;;;;;;4.43;nan;95592.44;5053537;28;20738;-67
2023/01/08 07:16:57;;;;;;;32.40;19.00;;;;;;;6.33;nan;95595.69;5052562;28;21647;-67
2023/01/08 07:19:24;;;;;;;34.05;20.42;;;;;;;9.16;nan;95586.59;5052029;28;20887;-67
2023/01/08 07:21:51;;;;;;;33.40;20.50;;;;;;;11.59;nan;95577.28;5051839;28;20255;-67
2023/01/08 07:24:18;;;;;;;33.85;21.38;;;;;;;13.30;nan;95577.69;5052047;28;20205;-67
2023/01/08 07:26:44;;;;;;;39.70;22.60;;;;;;;14.75;nan;95577.19;5053226;28;20269;-68
2023/01/08 07:29:12;;;;;;;41.20;24.17;;;;;;;15.83;nan;95577.59;5052076;28;20217;-67
2023/01/08 07:31:39;;;;;;;43.35;24.40;;;;;;;16.26;nan;95572.13;5051406;28;20715;-68
2023/01/08 07:34:06;;;;;;;44.38;28.05;;;;;;;16.21;nan;95570.66;5052552;28;20744;-67
2023/01/08 07:36:33;;;;;;;43.85;28.38;;;;;;;15.93;nan;95576.25;5053074;28;20357;-67
2023/01/08 07:39:00;;;;;;;48.78;29.75;;;;;;;15.53;nan;95580.59;5051458;28;20214;-67
2023/01/08 07:41:26;;;;;;;45.40;27.70;;;;;;;14.51;nan;95589.25;5051760;28;20205;-67
2023/01/08 07:43:53;;;;;;;48.28;28.90;;;;;;;12.88;nan;95591.00;5053235;28;20198;-66
2023/01/08 07:46:22;;;;;;;44.30;27.73;;;;;;;11.45;nan;95590.41;5053114;28;20208;-67
2023/01/08 07:48:49;;;;;;;47.03;28.10;;;;;;;10.76;nan;95591.44;5052150;28;20201;-66
2023/01/08 07:51:16;;;;;;;49.65;28.00;;;;;;;10.81;nan;95592.16;5051591;28;20924;-68
2023/01/08 07:53:43;;;;;;;53.83;29.38;;;;;;;10.89;nan;95597.03;5051866;28;20658;-67
2023/01/08 07:56:11;;;;;;;47.92;30.50;;;;;;;10.63;nan;95581.63;5053127;28;20274;-66
2023/01/08 07:58:38;;;;;;;54.95;33.13;;;;;;;10.81;nan;95592.16;5052023;28;20255;-66
2023/01/08 08:01:09;;;;;;;59.53;34.92;;;;;;;11.21;nan;95591.91;5052621;28;20197;-66
2023/01/08 08:03:38;;;;;;;58.45;32.55;;;;;;;11.54;nan;95592.69;5052569;28;20221;-67
2023/01/08 08:06:05;;;;;;;49.70;30.38;;;;;;;11.90;nan;95592.50;5052017;28;20251;-66
2023/01/08 08:08:32;;;;;;;57.92;31.40;;;;;;;12.20;nan;95583.91;5051676;28;20201;-66
2023/01/08 08:10:58;;;;;;;48.00;31.08;;;;;;;12.58;nan;95589.50;5050489;28;20535;-66
2023/01/08 08:13:25;;;;;;;52.25;31.80;;;;;;;13.02;nan;95582.06;5051621;28;20355;-67
2023/01/08 08:15:52;;;;;;;50.83;31.52;;;;;;;13.61;nan;95587.59;5051789;28;20202;-66
2023/01/08 08:18:19;;;;;;;49.45;29.23;;;;;;;13.80;nan;95587.75;5051191;28;20217;-66
2023/01/08 08:20:50;;;;;;;54.65;29.00;;;;;;;13.79;nan;95586.09;5050932;28;20216;-67
2023/01/08 08:23:17;;;;;;;53.08;30.95;;;;;;;13.58;nan;95588.56;5051256;28;20259;-67
2023/01/08 08:25:44;;;;;;;55.47;31.42;;;;;;;13.19;nan;95579.78;5052143;28;20209;-67
2023/01/08 08:28:12;;;;;;;52.35;31.75;;;;;;;12.61;nan;95586.88;5052265;28;20214;-64
2023/01/08 08:30:39;;;;;;;54.50;31.63;;;;;;;11.99;nan;95592.22;5050894;28;20581;-65
2023/01/08 08:33:07;;;;;;;51.05;30.63;;;;;;;11.57;nan;95590.06;5051125;28;20205;-67
2023/01/08 08:35:34;;;;;;;59.40;34.13;;;;;;;11.06;nan;95591.50;5050845;28;20601;-66
2023/01/08 08:38:03;;;;;;;64.68;32.85;;;;;;;10.65;nan;95606.13;5051776;28;20201;-65
2023/01/08 08:40:29;;;;;;;61.00;34.00;;;;;;;10.28;nan;95602.81;5050945;28;20243;-68
2023/01/08 08:42:57;;;;;;;57.15;31.65;;;;;;;10.07;nan;95594.81;5051469;28;20209;-65
2023/01/08 08:45:24;;;;;;;70.05;34.00;;;;;;;9.76;nan;95598.91;5049955;28;20204;-67
2023/01/08 08:47:51;;;;;;;60.25;34.10;;;;;;;9.36;nan;95587.06;5050729;28;20210;-67
2023/01/08 08:50:18;;;;;;;61.97;34.58;;;;;;;9.29;nan;95595.66;5049837;28;20225;-67
2023/01/08 08:52:47;;;;;;;68.28;34.92;;;;;;;9.42;nan;95592.00;5051195;28;20205;-67
2023/01/08 08:55:16;;;;;;;70.90;37.97;;;;;;;9.61;nan;95595.00;5051993;28;20205;-66
2023/01/08 08:57:44;;;;;;;66.10;35.05;;;;;;;9.72;nan;95593.03;5050357;28;20275;-66
2023/01/08 09:00:13;;;;;;;62.15;34.55;;;;;;;10.03;nan;95595.75;5050990;28;20224;-66
2023/01/08 09:02:39;;;;;;;60.67;34.85;;;;;;;10.33;nan;95593.41;5050974;28;20201;-66
2023/01/08 09:05:07;;;;;;;64.13;33.45;;;;;;;10.36;nan;95590.78;5050809;28;20846;-66
2023/01/08 09:07:34;;;;;;;63.45;34.67;;;;;;;10.22;nan;95591.94;5050071;28;20239;-66
2023/01/08 09:10:00;;;;;;;66.50;33.70;;;;;;;10.28;nan;95583.34;5050953;28;20205;-65
2023/01/08 09:12:28;;;;;;;69.55;33.80;;;;;;;10.21;nan;95582.63;5050584;28;20299;-67
2023/01/08 09:14:55;;;;;;;60.08;32.28;;;;;;;10.23;nan;95588.53;5050836;28;20286;-67
2023/01/08 09:17:24;;;;;;;51.55;32.80;;;;;;;10.42;nan;95576.19;5051795;28;20895;-67
2023/01/08 09:19:50;;;;;;;57.75;32.17;;;;;;;10.74;nan;95584.72;5051126;28;20958;-66
2023/01/08 09:22:17;;;;;;;55.05;30.95;;;;;;;11.13;nan;95573.50;5050064;28;20202;-65
2023/01/08 09:24:44;;;;;;;45.05;26.63;;;;;;;11.08;nan;95564.31;5051326;28;20206;-67
2023/01/08 09:27:11;;;;;;;57.55;29.75;;;;;;;10.90;nan;95569.03;5050552;28;20206;-66
2023/01/08 09:29:39;;;;;;;55.13;32.17;;;;;;;10.85;nan;95560.72;5051967;28;20666;-67
2023/01/08 09:32:06;;;;;;;51.55;30.80;;;;;;;11.07;nan;95557.56;5054032;28;20718;-67
2023/01/08 09:34:34;;;;;;;64.15;35.03;;;;;;;11.30;nan;95552.69;5053709;28;20205;-68
2023/01/08 09:37:01;;;;;;;94.18;45.85;;;;;;;11.54;nan;95544.31;5052432;28;21496;-66
2023/01/08 09:39:28;;;;;;;83.28;41.03;;;;;;;11.56;nan;95547.66;5054586;28;20329;-66
2023/01/08 09:41:56;;;;;;;55.38;32.20;;;;;;;11.67;nan;95546.50;5054237;28;20610;-68
2023/01/08 09:44:27;;;;;;;68.32;38.75;;;;;;;11.71;nan;95537.88;5052899;28;20682;-67
2023/01/08 09:46:56;;;;;;;57.70;34.78;;;;;;;11.84;nan;95531.59;5052422;28;20274;-65
2023/01/08 09:49:28;;;;;;;48.15;29.45;;;;;;;11.87;nan;95531.50;5054591;28;20220;-67
2023/01/08 09:51:55;;;;;;;45.60;28.00;;;;;;;11.71;nan;95530.25;5052313;28;20248;-66
2023/01/08 09:54:26;;;;;;;42.80;27.70;;;;;;;11.78;nan;95519.03;5051843;28;20206;-66
2023/01/08 09:56:53;;;;;;;46.22;28.55;;;;;;;12.03;nan;95512.28;5050421;28;20255;-67
2023/01/08 09:59:21;;;;;;;37.60;25.05;;;;;;;12.03;nan;95519.94;5049075;28;20275;-70
2023/01/08 10:01:48;;;;;;;41.83;26.65;;;;;;;11.99;nan;95513.25;5051143;28;20205;-67
2023/01/08 10:04:18;;;;;;;40.50;26.10;;;;;;;11.79;nan;95502.88;5053828;28;20224;-66
2023/01/08 10:06:51;;;;;;;51.90;30.95;;;;;;;11.73;nan;95501.31;5053274;28;20213;-66
2023/01/08 10:09:28;;;;;;;63.00;36.33;;;;;;;11.59;nan;95496.66;5053888;28;20210;-68
2023/01/08 10:11:57;;;;;;;51.47;30.33;;;;;;;11.39;nan;95501.50;5053807;28;20241;-67
2023/01/08 10:14:28;;;;;;;49.75;30.85;;;;;;;11.46;nan;95504.69;5054750;28;20213;-66
2023/01/08 10:16:58;;;;;;;55.35;33.28;;;;;;;11.51;nan;95487.59;5053025;28;20761;-68
2023/01/08 10:19:27;;;;;;;42.15;29.25;;;;;;;11.67;nan;95493.84;5052444;28;20206;-66
2023/01/08 10:21:54;;;;;;;46.30;28.92;;;;;;;11.73;nan;95488.59;5053595;28;20198;-66
2023/01/08 10:24:31;;;;;;;59.80;29.45;;;;;;;11.71;nan;95485.25;5053604;28;20213;-65
2023/01/08 10:27:07;;;;;;;47.75;29.75;;;;;;;11.67;nan;95482.84;5053159;28;20274;-71
2023/01/08 10:29:33;;;;;;;55.78;33.42;;;;;;;11.66;nan;95473.53;5053509;28;20207;-67
2023/01/08 10:32:09;;;;;;;46.50;29.75;;;;;;;11.68;nan;95469.22;5053319;28;20275;-67
2023/01/08 10:34:45;;;;;;;59.05;35.22;;;;;;;11.81;nan;95468.84;5053253;28;20303;-64
2023/01/08 10:37:22;;;;;;;44.05;28.67;;;;;;;11.98;nan;95464.91;5052122;28;20686;-67
2023/01/08 10:39:49;;;;;;;41.80;27.08;;;;;;;11.98;nan;95458.09;5053013;28;20203;-68
2023/01/08 10:42:18;;;;;;;36.28;25.98;;;;;;;11.92;nan;95455.75;5051827;28;21798;-66
2023/01/08 10:44:56;;;;;;;44.05;26.83;;;;;;;11.44;nan;95458.94;5047679;28;20736;-66
2023/01/08 10:47:24;;;;;;;41.42;27.08;;;;;;;11.38;nan;95446.41;5048905;28;20773;-67
2023/01/08 10:49:53;;;;;;;40.53;26.38;;;;;;;11.40;nan;95447.19;5051837;28;20255;-66
2023/01/08 10:52:26;;;;;;;46.75;26.77;;;;;;;11.36;nan;95443.09;5050879;28;20290;-66
2023/01/08 10:54:53;;;;;;;40.55;24.95;;;;;;;11.10;nan;95446.41;5053585;28;20220;-66
2023/01/08 10:57:25;;;;;;;45.80;25.70;;;;;;;11.09;nan;95434.56;5052282;28;20202;-66
2023/01/08 10:59:52;;;;;;;43.28;27.92;;;;;;;11.20;nan;95426.59;5053244;28;20313;-65
2023/01/08 11:02:26;;;;;;;44.20;26.48;;;;;;;11.09;nan;95428.66;5053033;28;20916;-64
2023/01/08 11:04:54;;;;;;;40.92;26.23;;;;;;;11.20;nan;95429.16;5052734;28;20662;-65
2023/01/08 11:07:23;;;;;;;37.67;24.83;;;;;;;11.11;nan;95431.97;5051379;28;20206;-66
2023/01/08 11:09:52;;;;;;;37.92;25.52;;;;;;;11.03;nan;95424.56;5052280;28;20217;-66
2023/01/08 11:12:38;;;;;;;45.35;26.05;;;;;;;10.91;nan;95420.66;5051030;28;21643;-67
2023/01/08 11:15:07;;;;;;;42.78;25.40;;;;;;;10.95;nan;95405.31;5051449;28;20209;-66
2023/01/08 11:17:34;;;;;;;37.80;24.88;;;;;;;11.06;nan;95423.66;5050216;28;20193;-65
2023/01/08 11:20:19;;;;;;;37.45;25.50;;;;;;;11.10;nan;95417.59;5050901;28;20205;-66
2023/01/08 11:22:45;;;;;;;41.58;26.27;;;;;;;11.09;nan;95414.22;5051721;28;20198;-66
2023/01/08 11:25:14;;;;;;;40.60;26.35;;;;;;;11.04;nan;95413.53;5051885;28;20262;-65
2023/01/08 11:27:44;;;;;;;39.35;24.08;;;;;;;11.06;nan;95408.38;5048279;28;20298;-67
2023/01/08 11:30:14;;;;;;;35.42;23.85;;;;;;;11.13;nan;95412.44;5048256;28;20216;-67
2023/01/08 11:32:46;;;;;;;38.92;24.02;;;;;;;11.09;nan;95406.59;5048870;28;20785;-66
2023/01/08 11:35:19;;;;;;;39.28;23.98;;;;;;;11.11;nan;95402.28;5048961;28;20209;-67
2023/01/08 11:37:52;;;;;;;43.15;25.80;;;;;;;11.23;nan;95406.16;5047901;28;20217;-68
2023/01/08 11:40:31;;;;;;;40.17;24.60;;;;;;;11.26;nan;95393.34;5046387;28;20210;-66
2023/01/08 11:43:27;;;;;;;49.85;26.40;;;;;;;11.26;nan;95395.91;5051497;28;20208;-66
2023/01/08 11:46:12;;;;;;;38.75;25.05;;;;;;;11.31;nan;95388.97;5051084;28;20212;-66